createdAt,value
2018-12-20T00:02:26.579Z,3.60
2018-12-20T00:04:55.424Z,3.20
2018-12-20T00:07:24.874Z,4.00
2018-12-20T00:09:53.932Z,4.00
2018-12-20T00:12:22.849Z,4.00
2018-12-20T00:14:51.812Z,5.00
2018-12-20T00:17:25.908Z,4.60
2018-12-20T00:19:54.947Z,4.00
2018-12-20T00:22:24.214Z,4.00
2018-12-20T00:24:53.049Z,5.00
2018-12-20T00:27:21.887Z,4.00
2018-12-20T00:29:50.725Z,4.40
2018-12-20T00:32:19.572Z,5.00
2018-12-20T00:34:48.528Z,4.20
2018-12-20T00:37:17.893Z,4.00
2018-12-20T00:39:46.867Z,4.60
2018-12-20T00:42:15.870Z,4.40
2018-12-20T00:44:44.811Z,2.40
2018-12-20T00:47:14.037Z,2.80
2018-12-20T00:49:43.547Z,5.00
2018-12-20T00:52:12.475Z,4.40
2018-12-20T00:54:41.407Z,4.00
2018-12-20T00:57:10.405Z,4.00
2018-12-20T00:59:39.344Z,4.00
2018-12-20T01:02:08.647Z,4.80
2018-12-20T01:04:38.004Z,5.00
2018-12-20T01:07:07.212Z,2.80
2018-12-20T01:09:36.152Z,4.00
2018-12-20T01:12:05.241Z,2.00
2018-12-20T01:14:34.139Z,2.00
2018-12-20T01:17:03.112Z,5.00
2018-12-20T01:19:32.635Z,4.40
2018-12-20T01:22:01.795Z,2.00
2018-12-20T01:24:30.993Z,2.00
2018-12-20T01:27:00.046Z,2.80
2018-12-20T01:29:29.045Z,3.60
2018-12-20T01:31:58.173Z,4.80
2018-12-20T01:34:27.484Z,4.20
2018-12-20T01:36:56.507Z,2.40
2018-12-20T01:39:25.698Z,3.20
2018-12-20T01:41:54.836Z,4.00
2018-12-20T01:44:23.887Z,5.00
2018-12-20T01:46:54.562Z,2.00
2018-12-20T01:49:24.595Z,3.20
2018-12-20T01:51:55.307Z,4.00
2018-12-20T01:54:24.364Z,2.20
2018-12-20T01:56:53.600Z,4.00
2018-12-20T01:59:22.673Z,3.60
2018-12-20T02:01:52.172Z,3.60
2018-12-20T02:04:21.045Z,4.00
2018-12-20T02:06:49.966Z,2.00
2018-12-20T02:09:18.976Z,3.20
2018-12-20T02:11:48.093Z,2.00
2018-12-20T02:14:17.156Z,2.00
2018-12-20T02:16:46.653Z,3.20
2018-12-20T02:19:16.026Z,3.60
2018-12-20T02:21:45.052Z,3.20
2018-12-20T02:24:14.728Z,4.00
2018-12-20T02:26:43.710Z,0.00
2018-12-20T02:29:13.034Z,1.40
2018-12-20T02:31:41.965Z,2.40
2018-12-20T02:34:10.919Z,4.00
2018-12-20T02:36:39.731Z,2.40
2018-12-20T02:39:09.335Z,2.40
2018-12-20T02:41:38.264Z,4.00
2018-12-20T02:44:07.640Z,2.00
2018-12-20T02:46:36.529Z,3.20
2018-12-20T02:49:05.678Z,2.00
2018-12-20T02:51:34.734Z,2.00
2018-12-20T02:54:03.988Z,2.00
2018-12-20T02:56:33.149Z,1.80
2018-12-20T02:59:02.661Z,2.00
2018-12-20T03:01:31.866Z,3.20
2018-12-20T03:04:00.947Z,1.60
2018-12-20T03:06:29.832Z,2.40
2018-12-20T03:08:58.987Z,2.00
2018-12-20T03:11:28.122Z,2.00
2018-12-20T03:13:57.483Z,4.00
2018-12-20T03:16:26.422Z,4.00
2018-12-20T03:18:55.623Z,2.00
2018-12-20T03:21:24.660Z,4.00
2018-12-20T03:23:54.007Z,2.00
2018-12-20T03:26:23.985Z,4.00
2018-12-20T03:28:53.143Z,2.00
2018-12-20T03:31:22.201Z,1.80
2018-12-20T03:33:51.304Z,3.60
2018-12-20T03:36:20.333Z,1.00
2018-12-20T03:38:49.863Z,4.00
2018-12-20T03:41:18.886Z,2.60
2018-12-20T03:43:47.916Z,1.00
2018-12-20T03:46:16.771Z,2.40
2018-12-20T03:48:45.667Z,3.20
2018-12-20T03:51:14.922Z,1.00
2018-12-20T03:53:43.904Z,4.00
2018-12-20T03:56:13.068Z,3.00
2018-12-20T03:58:42.533Z,2.00
2018-12-20T04:01:11.437Z,3.60
2018-12-20T04:03:40.295Z,2.00
2018-12-20T04:06:09.694Z,2.00
2018-12-20T04:08:38.583Z,2.00
2018-12-20T04:11:07.474Z,1.00
2018-12-20T04:13:36.917Z,1.00
2018-12-20T04:16:06.065Z,2.00
2018-12-20T04:18:35.126Z,2.40
2018-12-20T04:21:04.238Z,1.80
2018-12-20T04:23:33.072Z,1.00
2018-12-20T04:26:01.900Z,1.20
2018-12-20T04:28:30.951Z,1.40
2018-12-20T04:31:00.068Z,2.20
2018-12-20T04:33:29.006Z,2.20
2018-12-20T04:36:00.061Z,2.40
2018-12-20T04:38:28.943Z,2.20
2018-12-20T04:40:58.218Z,2.20
2018-12-20T04:43:27.124Z,2.20
2018-12-20T04:45:56.759Z,2.20
2018-12-20T04:48:26.200Z,1.80
2018-12-20T04:50:55.434Z,2.40
2018-12-20T04:53:24.398Z,1.80
2018-12-20T04:55:53.457Z,1.00
2018-12-20T04:58:22.759Z,1.60
2018-12-20T05:00:51.910Z,2.00
2018-12-20T05:03:21.465Z,1.00
2018-12-20T05:05:50.382Z,1.00
2018-12-20T05:08:19.306Z,2.20
2018-12-20T05:10:48.331Z,2.40
2018-12-20T05:13:17.832Z,2.20
2018-12-20T05:15:55.727Z,2.20
2018-12-20T05:18:17.544Z,1.00
2018-12-20T05:20:46.706Z,2.20
2018-12-20T05:23:15.695Z,2.00
2018-12-20T05:25:44.567Z,2.40
2018-12-20T05:28:13.537Z,2.20
2018-12-20T05:30:42.564Z,2.40
2018-12-20T05:33:12.169Z,2.20
2018-12-20T05:35:41.160Z,2.20
2018-12-20T05:38:10.064Z,3.00
2018-12-20T05:40:38.968Z,1.00
2018-12-20T05:43:07.876Z,1.80
2018-12-20T05:45:36.896Z,1.00
2018-12-20T05:48:06.154Z,1.00
2018-12-20T05:50:35.109Z,1.60
2018-12-20T05:53:04.050Z,1.00
2018-12-20T05:55:32.923Z,1.00
2018-12-20T05:58:01.760Z,1.00
2018-12-20T06:00:30.597Z,0.00
2018-12-20T06:02:59.925Z,2.00
2018-12-20T06:05:28.861Z,2.00
2018-12-20T06:07:57.770Z,2.00
2018-12-20T06:10:26.765Z,1.00
2018-12-20T06:12:55.848Z,1.00
2018-12-20T06:15:24.815Z,1.40
2018-12-20T06:17:54.132Z,1.20
2018-12-20T06:20:23.310Z,1.00
2018-12-20T06:22:52.406Z,1.00
2018-12-20T06:25:21.558Z,1.00
2018-12-20T06:27:50.775Z,2.00
2018-12-20T06:30:19.682Z,1.00
2018-12-20T06:32:49.316Z,1.60
2018-12-20T06:35:18.262Z,1.00
2018-12-20T06:37:47.302Z,1.60
2018-12-20T06:40:16.548Z,1.60
2018-12-20T06:42:45.413Z,1.00
2018-12-20T06:45:14.542Z,1.60
2018-12-20T06:47:43.799Z,1.00
2018-12-20T06:50:13.804Z,1.40
2018-12-20T06:52:43.258Z,1.00
2018-12-20T06:55:12.506Z,1.00
2018-12-20T06:57:41.458Z,1.00
2018-12-20T07:00:10.574Z,0.60
2018-12-20T07:02:39.983Z,1.00
2018-12-20T07:05:08.825Z,1.00
2018-12-20T07:07:37.679Z,1.00
2018-12-20T07:10:07.892Z,1.00
2018-12-20T07:12:36.749Z,0.00
2018-12-20T07:15:05.923Z,0.80
2018-12-20T07:17:34.727Z,1.00
2018-12-20T07:20:04.254Z,1.20
2018-12-20T07:22:33.198Z,1.20
2018-12-20T07:25:02.607Z,0.60
2018-12-20T07:27:31.474Z,0.00
2018-12-20T07:30:01.187Z,1.00
2018-12-20T07:32:30.387Z,0.80
2018-12-20T07:34:59.529Z,1.00
2018-12-20T07:37:28.607Z,0.00
2018-12-20T07:39:58.274Z,1.00
2018-12-20T07:42:27.361Z,1.00
2018-12-20T07:44:56.150Z,0.00
2018-12-20T07:47:26.501Z,1.00
2018-12-20T07:49:55.325Z,1.00
2018-12-20T07:52:24.106Z,0.00
2018-12-20T07:54:53.765Z,1.00
2018-12-20T07:57:24.825Z,0.00
2018-12-20T07:59:54.378Z,1.00
2018-12-20T08:02:23.503Z,1.00
2018-12-20T08:04:52.575Z,0.00
2018-12-20T08:07:22.193Z,0.40
2018-12-20T08:09:51.344Z,1.00
2018-12-20T08:12:21.522Z,0.80
2018-12-20T08:14:50.620Z,0.40
2018-12-20T08:17:19.626Z,1.00
2018-12-20T08:19:48.595Z,1.00
2018-12-20T08:22:19.022Z,1.00
2018-12-20T08:24:47.929Z,0.60
2018-12-20T08:27:17.381Z,1.00
2018-12-20T08:29:47.254Z,0.20
2018-12-20T08:32:16.274Z,0.40
2018-12-20T08:34:45.215Z,0.00
2018-12-20T08:37:14.825Z,1.00
2018-12-20T08:39:44.075Z,0.40
2018-12-20T08:42:13.063Z,0.00
2018-12-20T08:44:42.021Z,0.20
2018-12-20T08:47:11.083Z,0.00
2018-12-20T08:49:40.549Z,0.00
2018-12-20T08:52:10.490Z,0.00
2018-12-20T08:54:39.432Z,0.80
2018-12-20T08:57:09.712Z,1.00
2018-12-20T08:59:38.727Z,0.00
2018-12-20T09:02:07.502Z,0.40
2018-12-20T09:04:37.469Z,0.00
2018-12-20T09:07:06.728Z,0.00
2018-12-20T09:09:35.654Z,0.00
2018-12-20T09:12:04.718Z,1.00
2018-12-20T09:14:34.004Z,0.00
2018-12-20T09:17:04.411Z,0.00
2018-12-20T09:19:40.949Z,0.80
2018-12-20T09:22:13.166Z,0.60
2018-12-20T09:24:45.210Z,0.00
2018-12-20T09:27:22.405Z,0.00
2018-12-20T09:29:51.506Z,0.60
2018-12-20T09:32:20.329Z,0.20
2018-12-20T09:34:49.307Z,0.40
2018-12-20T09:37:18.378Z,0.00
2018-12-20T09:39:48.917Z,0.00
2018-12-20T09:42:18.414Z,0.00
2018-12-20T09:44:47.711Z,0.00
2018-12-20T09:47:21.576Z,0.00
2018-12-20T09:49:50.569Z,0.00
2018-12-20T09:52:19.733Z,0.00
2018-12-20T09:54:48.879Z,0.00
2018-12-20T09:57:17.887Z,0.00
2018-12-20T09:59:53.433Z,0.00
2018-12-20T10:02:22.621Z,0.00
2018-12-20T10:04:52.963Z,0.00
2018-12-20T10:07:22.074Z,0.40
2018-12-20T10:09:51.142Z,0.00
2018-12-20T10:12:20.132Z,0.00
2018-12-20T10:14:49.350Z,0.00
2018-12-20T10:17:19.948Z,0.60
2018-12-20T10:19:50.482Z,0.00
2018-12-20T10:22:20.114Z,0.00
2018-12-20T10:24:49.141Z,0.00
2018-12-20T10:27:18.324Z,0.00
2018-12-20T10:29:47.354Z,0.00
2018-12-20T10:32:16.154Z,0.00
2018-12-20T10:34:46.561Z,0.00
2018-12-20T10:37:18.951Z,0.00
2018-12-20T10:39:56.460Z,0.20
2018-12-20T10:42:25.559Z,0.00
2018-12-20T10:44:54.336Z,0.00
2018-12-20T10:47:29.273Z,0.00
2018-12-20T10:49:58.002Z,0.00
2018-12-20T10:52:27.449Z,0.00
2018-12-20T10:54:56.334Z,0.00
2018-12-20T10:57:25.229Z,0.00
2018-12-20T10:59:54.842Z,0.00
2018-12-20T11:02:29.053Z,0.00
2018-12-20T11:05:02.450Z,0.00
2018-12-20T11:07:36.874Z,0.00
2018-12-20T11:10:12.650Z,0.00
2018-12-20T11:12:47.314Z,0.00
2018-12-20T11:15:17.833Z,0.00
2018-12-20T11:17:47.251Z,0.00
2018-12-20T11:20:19.589Z,0.00
2018-12-20T11:22:50.579Z,0.00
2018-12-20T11:25:20.185Z,0.00
2018-12-20T11:27:49.046Z,0.00
2018-12-20T11:30:18.085Z,0.00
2018-12-20T11:32:46.917Z,0.00
2018-12-20T11:35:17.286Z,0.00
2018-12-20T11:37:46.382Z,0.00
2018-12-20T11:40:16.650Z,0.00
2018-12-20T11:42:45.973Z,0.00
2018-12-20T11:45:16.680Z,0.00
2018-12-20T11:47:46.067Z,0.00
2018-12-20T11:50:15.928Z,0.00
2018-12-20T11:52:45.419Z,0.00
2018-12-20T11:55:14.412Z,0.00
2018-12-20T11:57:43.254Z,0.00
2018-12-20T12:00:12.493Z,0.00
2018-12-20T12:02:41.775Z,0.00
2018-12-20T12:05:10.978Z,0.00
2018-12-20T12:07:40.436Z,0.00
2018-12-20T12:10:09.291Z,0.00
2018-12-20T12:12:38.117Z,0.00
2018-12-20T12:15:08.116Z,0.00
2018-12-20T12:17:37.571Z,0.00
2018-12-20T12:20:07.860Z,0.00
2018-12-20T12:22:36.654Z,0.00
2018-12-20T12:25:06.389Z,0.00
2018-12-20T12:27:35.809Z,0.00
2018-12-20T12:30:05.299Z,0.00
2018-12-20T12:32:34.749Z,0.00
2018-12-20T12:35:03.666Z,0.00
2018-12-20T12:37:32.833Z,0.00
2018-12-20T12:40:01.631Z,0.00
2018-12-20T12:42:30.506Z,0.00
2018-12-20T12:44:59.357Z,0.00
2018-12-20T12:47:33.810Z,0.00
2018-12-20T12:50:02.710Z,0.00
2018-12-20T12:52:31.498Z,0.00
2018-12-20T12:55:00.587Z,0.20
2018-12-20T12:57:29.366Z,0.00
2018-12-20T12:59:58.154Z,0.00
2018-12-20T13:02:27.638Z,0.00
2018-12-20T13:04:56.554Z,0.00
2018-12-20T13:07:25.682Z,0.00
2018-12-20T13:09:54.850Z,0.00
2018-12-20T13:12:23.702Z,0.00
2018-12-20T13:14:52.818Z,0.00
2018-12-20T13:17:22.254Z,0.00
2018-12-20T13:19:51.224Z,0.00
2018-12-20T13:22:21.658Z,0.00
2018-12-20T13:24:50.676Z,0.00
2018-12-20T13:27:19.849Z,0.00
2018-12-20T13:29:48.674Z,0.00
2018-12-20T13:32:18.850Z,0.00
2018-12-20T13:34:47.863Z,0.00
2018-12-20T13:37:17.090Z,0.00
2018-12-20T13:39:46.289Z,0.00
2018-12-20T13:42:15.951Z,0.00
2018-12-20T13:44:45.690Z,0.00
2018-12-20T13:47:14.717Z,0.00
2018-12-20T13:49:43.598Z,0.00
2018-12-20T13:52:13.402Z,0.00
2018-12-20T13:54:42.220Z,0.00
2018-12-20T13:57:11.691Z,0.00
2018-12-20T13:59:41.058Z,0.00
2018-12-20T14:02:10.317Z,0.00
2018-12-20T14:04:39.694Z,0.00
2018-12-20T14:07:08.650Z,0.00
2018-12-20T14:10:12.387Z,0.00
2018-12-20T14:12:42.406Z,0.00
2018-12-20T14:15:18.248Z,0.00
2018-12-20T14:17:57.723Z,0.00
2018-12-20T14:20:43.517Z,0.00
2018-12-20T14:23:17.908Z,0.00
2018-12-20T14:25:47.809Z,0.00
2018-12-20T14:28:16.909Z,0.00
2018-12-20T14:30:45.722Z,0.00
2018-12-20T14:33:14.734Z,0.00
2018-12-20T14:35:44.032Z,0.00
2018-12-20T14:38:13.041Z,0.00
2018-12-20T14:40:42.161Z,0.00
2018-12-20T14:43:11.117Z,0.00
2018-12-20T14:45:40.202Z,0.00
2018-12-20T14:48:11.044Z,0.00
2018-12-20T14:50:40.280Z,0.00
2018-12-20T14:53:09.107Z,0.00
2018-12-20T14:55:37.917Z,0.00
2018-12-20T14:58:06.783Z,0.00
2018-12-20T15:00:35.619Z,0.00
2018-12-20T15:03:04.458Z,0.00
2018-12-20T15:05:33.780Z,0.00
2018-12-20T15:08:02.595Z,0.00
2018-12-20T15:10:31.622Z,0.00
2018-12-20T15:13:00.932Z,0.00
2018-12-20T15:15:29.778Z,0.00
2018-12-20T15:17:58.602Z,0.00
2018-12-20T15:20:27.753Z,0.00
2018-12-20T15:22:56.951Z,0.00
2018-12-20T15:25:26.257Z,0.00
2018-12-20T15:27:55.386Z,0.00
2018-12-20T15:30:24.282Z,0.00
2018-12-20T15:32:53.241Z,0.00
2018-12-20T15:35:22.073Z,0.00
2018-12-20T15:37:51.363Z,0.00
2018-12-20T15:40:20.250Z,0.00
2018-12-20T15:42:49.143Z,0.00
2018-12-20T15:45:18.625Z,0.00
2018-12-20T15:47:47.461Z,0.00
2018-12-20T15:50:17.470Z,0.00
2018-12-20T15:52:46.477Z,0.00
2018-12-20T15:55:15.650Z,0.00
2018-12-20T15:57:45.662Z,0.00
2018-12-20T16:00:16.014Z,0.00
2018-12-20T16:02:44.855Z,0.00
2018-12-20T16:05:13.718Z,0.00
2018-12-20T16:07:42.824Z,0.00
2018-12-20T16:10:11.762Z,0.00
2018-12-20T16:12:41.079Z,0.00
2018-12-20T16:15:09.918Z,0.00
2018-12-20T16:17:38.744Z,0.00
2018-12-20T16:20:08.869Z,0.00
2018-12-20T16:22:37.690Z,0.00
2018-12-20T16:25:07.724Z,0.00
2018-12-20T16:27:37.534Z,0.00
2018-12-20T16:30:08.262Z,0.00
2018-12-20T16:32:37.143Z,0.00
2018-12-20T16:35:06.770Z,0.00
2018-12-20T16:37:35.944Z,0.00
2018-12-20T16:40:05.707Z,0.00
2018-12-20T16:42:35.494Z,0.00
2018-12-20T16:45:05.549Z,0.00
2018-12-20T16:47:34.374Z,0.00
2018-12-20T16:50:03.224Z,0.00
2018-12-20T16:52:33.710Z,0.00
2018-12-20T16:55:04.575Z,0.00
2018-12-20T16:57:35.069Z,0.60
2018-12-20T17:00:05.604Z,0.00
2018-12-20T17:02:34.938Z,0.60
2018-12-20T17:05:03.914Z,0.00
2018-12-20T17:07:32.890Z,0.00
2018-12-20T17:10:02.268Z,0.00
2018-12-20T17:12:31.567Z,0.00
2018-12-20T17:15:00.446Z,0.00
2018-12-20T17:17:29.946Z,0.20
2018-12-20T17:19:58.973Z,0.00
2018-12-20T17:22:28.909Z,0.00
2018-12-20T17:25:01.451Z,0.00
2018-12-20T17:27:30.290Z,0.00
2018-12-20T17:29:59.185Z,0.00
2018-12-20T17:32:27.993Z,0.00
2018-12-20T17:34:59.714Z,0.00
2018-12-20T17:37:30.803Z,0.00
2018-12-20T17:39:59.634Z,0.00
2018-12-20T17:42:28.610Z,0.00
2018-12-20T17:44:57.464Z,0.00
2018-12-20T17:47:26.517Z,0.00
2018-12-20T17:49:55.343Z,0.00
2018-12-20T17:52:24.714Z,0.00
2018-12-20T17:54:53.662Z,0.00
2018-12-20T17:57:22.598Z,0.00
2018-12-20T17:59:51.418Z,0.00
2018-12-20T18:02:20.234Z,0.00
2018-12-20T18:04:49.197Z,0.00
2018-12-20T18:07:18.806Z,0.00
2018-12-20T18:09:50.527Z,0.00
2018-12-20T18:12:19.638Z,0.00
2018-12-20T18:14:48.563Z,0.00
2018-12-20T18:17:17.566Z,0.00
2018-12-20T18:19:46.736Z,0.00
2018-12-20T18:22:16.002Z,0.00
2018-12-20T18:24:45.173Z,0.00
2018-12-20T18:27:14.041Z,0.00
2018-12-20T18:29:42.925Z,0.00
2018-12-20T18:32:12.090Z,0.00
2018-12-20T18:34:41.366Z,0.00
2018-12-20T18:37:10.213Z,0.60
2018-12-20T18:39:39.149Z,0.00
2018-12-20T18:42:08.178Z,0.60
2018-12-20T18:44:37.186Z,0.20
2018-12-20T18:47:06.067Z,0.00
2018-12-20T18:49:35.276Z,1.00
2018-12-20T18:52:04.191Z,0.80
2018-12-20T18:54:33.906Z,0.00
2018-12-20T18:57:02.731Z,0.00
2018-12-20T18:59:31.720Z,0.00
2018-12-20T19:02:00.550Z,0.00
2018-12-20T19:04:29.872Z,0.00
2018-12-20T19:06:58.693Z,0.80
2018-12-20T19:09:27.498Z,0.00
2018-12-20T19:11:56.333Z,1.00
2018-12-20T19:14:25.160Z,0.00
2018-12-20T19:16:53.988Z,0.20
2018-12-20T19:19:23.148Z,0.60
2018-12-20T19:21:51.970Z,1.00
2018-12-20T19:24:20.926Z,0.80
2018-12-20T19:26:50.985Z,1.00
2018-12-20T19:29:20.211Z,1.00
2018-12-20T19:31:49.039Z,0.00
2018-12-20T19:34:18.366Z,1.00
2018-12-20T19:36:47.218Z,0.00
2018-12-20T19:39:17.628Z,0.60
2018-12-20T19:41:47.153Z,0.00
2018-12-20T19:44:17.270Z,0.00
2018-12-20T19:46:46.194Z,0.00
2018-12-20T19:49:14.999Z,0.00
2018-12-20T19:51:44.082Z,0.20
2018-12-20T19:54:12.910Z,0.00
2018-12-20T19:56:41.739Z,0.00
2018-12-20T19:59:10.548Z,0.00
2018-12-20T20:01:39.719Z,0.80
2018-12-20T20:04:08.529Z,0.80
2018-12-20T20:06:37.407Z,0.80
2018-12-20T20:09:07.813Z,0.80
2018-12-20T20:11:36.632Z,0.20
2018-12-20T20:14:05.782Z,0.00
2018-12-20T20:16:35.131Z,0.00
2018-12-20T20:19:04.094Z,0.00
2018-12-20T20:21:33.290Z,0.00
2018-12-20T20:24:02.308Z,1.00
2018-12-20T20:26:31.214Z,0.40
2018-12-20T20:29:00.466Z,0.00
2018-12-20T20:31:29.479Z,0.40
2018-12-20T20:33:58.389Z,0.00
2018-12-20T20:36:27.317Z,0.00
2018-12-20T20:42:21.436Z,1.00
2018-12-20T20:44:50.970Z,0.00
2018-12-20T20:47:20.278Z,0.00
2018-12-20T20:49:49.089Z,0.00
2018-12-20T20:52:18.175Z,0.00
2018-12-20T20:54:48.505Z,1.40
2018-12-20T20:57:18.426Z,0.00
2018-12-20T20:59:51.059Z,0.00
2018-12-20T21:02:19.431Z,0.40
2018-12-20T21:04:49.057Z,0.40
2018-12-20T21:07:17.823Z,1.00
2018-12-20T21:09:47.430Z,1.00
2018-12-20T21:12:22.863Z,0.40
2018-12-20T21:14:52.300Z,0.00
2018-12-20T21:17:18.942Z,0.00
2018-12-20T21:19:50.223Z,0.00
2018-12-20T21:22:19.228Z,1.00
2018-12-20T21:24:48.195Z,0.00
2018-12-20T21:27:17.038Z,0.00
2018-12-20T21:29:46.261Z,-0.20
2018-12-20T21:32:15.818Z,0.00
2018-12-20T21:34:45.041Z,0.20
2018-12-20T21:37:14.043Z,1.00
2018-12-20T21:39:43.221Z,0.00
2018-12-20T21:42:12.129Z,0.40
2018-12-20T21:44:41.338Z,0.00
2018-12-20T21:47:10.358Z,0.60
2018-12-20T21:49:40.409Z,0.00
2018-12-20T21:52:11.393Z,0.00
2018-12-20T21:54:40.942Z,0.00
2018-12-20T21:57:10.465Z,0.00
2018-12-20T21:59:40.545Z,0.00
2018-12-20T22:02:09.808Z,0.00
2018-12-20T22:04:38.907Z,1.00
2018-12-20T22:07:08.300Z,0.00
2018-12-20T22:09:37.235Z,0.60
2018-12-20T22:12:06.280Z,0.00
2018-12-20T22:14:35.407Z,0.20
2018-12-20T22:17:04.164Z,0.00
2018-12-20T22:19:32.909Z,0.00
2018-12-20T22:22:01.840Z,0.00
2018-12-20T22:24:30.841Z,0.00
2018-12-20T22:26:59.600Z,0.00
2018-12-20T22:29:28.694Z,0.40
2018-12-20T22:31:57.509Z,0.00
2018-12-20T22:34:26.753Z,0.00
2018-12-20T22:36:56.150Z,0.00
2018-12-20T22:39:25.257Z,0.00
2018-12-20T22:41:54.751Z,0.00
2018-12-20T22:44:24.450Z,0.00
2018-12-20T22:46:53.226Z,0.00
2018-12-20T22:49:21.981Z,0.00
2018-12-20T22:51:51.168Z,0.00
2018-12-20T22:54:20.644Z,0.00
2018-12-20T22:56:49.685Z,0.00
2018-12-20T22:59:20.911Z,0.00
2018-12-20T23:01:49.853Z,0.20
2018-12-20T23:04:19.004Z,0.80
2018-12-20T23:06:49.162Z,-0.20
2018-12-20T23:09:18.743Z,0.00
2018-12-20T23:11:48.405Z,0.00
2018-12-20T23:14:17.278Z,0.00
2018-12-20T23:16:53.462Z,0.00
2018-12-20T23:19:17.054Z,0.00
2018-12-20T23:21:45.805Z,0.00
2018-12-20T23:24:15.179Z,0.00
2018-12-20T23:26:43.938Z,0.00
2018-12-20T23:29:12.970Z,0.00
2018-12-20T23:31:42.370Z,0.40
2018-12-20T23:34:11.102Z,0.00
2018-12-20T23:36:39.788Z,0.00
2018-12-20T23:39:08.528Z,0.00
2018-12-20T23:41:38.065Z,0.00
2018-12-20T23:44:06.797Z,0.00
2018-12-20T23:46:35.828Z,0.00
2018-12-20T23:49:04.617Z,0.00
2018-12-20T23:51:33.335Z,0.00
2018-12-20T23:54:02.213Z,0.00
2018-12-20T23:56:30.946Z,0.00
2018-12-20T23:58:59.677Z,0.00
